sensor_id;sensor_type;location;lat;lon;timestamp;pressure;altitude;pressure_sealevel;temperature;humidity
71791;BME280;59638;52.126;5.434;2023-12-04T00:00:27;101359.34;;;0.05;100.00
71791;BME280;59638;52.126;5.434;2023-12-04T00:02:54;101365.34;;;0.07;100.00
71791;BME280;59638;52.126;5.434;2023-12-04T00:05:20;101354.06;;;0.08;100.00
71791;BME280;59638;52.126;5.434;2023-12-04T00:07:47;101360.94;;;0.09;100.00
71791;BME280;59638;52.126;5.434;2023-12-04T00:10:13;101358.28;;;0.11;100.00
71791;BME280;59638;52.126;5.434;2023-12-04T00:12:40;101357.44;;;0.10;100.00
71791;BME280;59638;52.126;5.434;2023-12-04T00:15:07;101352.22;;;0.10;100.00
71791;BME280;59638;52.126;5.434;2023-12-04T00:17:34;101334.06;;;0.10;100.00
71791;BME280;59638;52.126;5.434;2023-12-04T00:20:00;101350.41;;;0.12;100.00
71791;BME280;59638;52.126;5.434;2023-12-04T00:22:27;101340.94;;;0.11;100.00
71791;BME280;59638;52.126;5.434;2023-12-04T00:24:55;101336.66;;;0.10;100.00
71791;BME280;59638;52.126;5.434;2023-12-04T00:27:21;101336.66;;;0.10;100.00
71791;BME280;59638;52.126;5.434;2023-12-04T00:29:53;101333.16;;;0.11;100.00
71791;BME280;59638;52.126;5.434;2023-12-04T00:32:19;101331.47;;;0.10;100.00
71791;BME280;59638;52.126;5.434;2023-12-04T00:34:46;101333.16;;;0.11;100.00
71791;BME280;59638;52.126;5.434;2023-12-04T00:37:12;101321.09;;;0.10;100.00
71791;BME280;59638;52.126;5.434;2023-12-04T00:39:39;101318.50;;;0.10;100.00
71791;BME280;59638;52.126;5.434;2023-12-04T00:42:05;101308.88;;;0.12;100.00
71791;BME280;59638;52.126;5.434;2023-12-04T00:44:32;101310.59;;;0.13;100.00
71791;BME280;59638;52.126;5.434;2023-12-04T00:46:58;101312.38;;;0.11;100.00
71791;BME280;59638;52.126;5.434;2023-12-04T00:49:25;101305.41;;;0.13;100.00
71791;BME280;59638;52.126;5.434;2023-12-04T00:51:51;101314.06;;;0.12;100.00
71791;BME280;59638;52.126;5.434;2023-12-04T00:54:18;101302.84;;;0.12;100.00
71791;BME280;59638;52.126;5.434;2023-12-04T00:56:44;101292.53;;;0.10;100.00
71791;BME280;59638;52.126;5.434;2023-12-04T00:59:11;101300.44;;;0.07;100.00
71791;BME280;59638;52.126;5.434;2023-12-04T01:01:38;101292.69;;;0.06;100.00
71791;BME280;59638;52.126;5.434;2023-12-04T01:04:04;101300.56;;;0.04;100.00
71791;BME280;59638;52.126;5.434;2023-12-04T01:06:31;101293.69;;;0.03;100.00
71791;BME280;59638;52.126;5.434;2023-12-04T01:08:57;101298.88;;;0.03;100.00
71791;BME280;59638;52.126;5.434;2023-12-04T01:11:24;101291.00;;;0.05;100.00
71791;BME280;59638;52.126;5.434;2023-12-04T01:13:50;101291.09;;;0.03;100.00
71791;BME280;59638;52.126;5.434;2023-12-04T01:16:17;101298.88;;;0.03;100.00
71791;BME280;59638;52.126;5.434;2023-12-04T01:18:43;101292.78;;;0.04;100.00
71791;BME280;59638;52.126;5.434;2023-12-04T01:21:10;101294.47;;;0.05;100.00
71791;BME280;59638;52.126;5.434;2023-12-04T01:23:37;101283.16;;;0.06;100.00
71791;BME280;59638;52.126;5.434;2023-12-04T01:26:04;101283.16;;;0.06;100.00
71791;BME280;59638;52.126;5.434;2023-12-04T01:28:30;101277.13;;;0.06;100.00
71791;BME280;59638;52.126;5.434;2023-12-04T01:30:57;101275.38;;;0.06;100.00
71791;BME280;59638;52.126;5.434;2023-12-04T01:33:23;101269.41;;;0.04;100.00
71791;BME280;59638;52.126;5.434;2023-12-04T01:35:50;101271.16;;;0.04;100.00
71791;BME280;59638;52.126;5.434;2023-12-04T01:38:17;101273.75;;;0.04;100.00
71791;BME280;59638;52.126;5.434;2023-12-04T01:40:43;101264.28;;;0.03;100.00
71791;BME280;59638;52.126;5.434;2023-12-04T01:43:10;101266.88;;;0.03;100.00
71791;BME280;59638;52.126;5.434;2023-12-04T01:45:36;101261.78;;;-0.01;100.00
71791;BME280;59638;52.126;5.434;2023-12-04T01:48:03;101255.00;;;-0.03;100.00
71791;BME280;59638;52.126;5.434;2023-12-04T01:50:30;101260.19;;;-0.03;100.00
71791;BME280;59638;52.126;5.434;2023-12-04T01:52:57;101261.09;;;-0.04;100.00
71791;BME280;59638;52.126;5.434;2023-12-04T01:55:23;101261.94;;;-0.04;100.00
71791;BME280;59638;52.126;5.434;2023-12-04T01:57:50;101247.34;;;-0.06;100.00
71791;BME280;59638;52.126;5.434;2023-12-04T02:00:17;101247.34;;;-0.06;100.00
71791;BME280;59638;52.126;5.434;2023-12-04T02:02:46;101243.00;;;-0.06;100.00
71791;BME280;59638;52.126;5.434;2023-12-04T02:05:13;101236.09;;;-0.07;100.00
71791;BME280;59638;52.126;5.434;2023-12-04T02:07:41;101240.44;;;-0.07;100.00
71791;BME280;59638;52.126;5.434;2023-12-04T02:10:07;101236.03;;;-0.05;100.00
71791;BME280;59638;52.126;5.434;2023-12-04T02:12:35;101235.13;;;-0.04;100.00
71791;BME280;59638;52.126;5.434;2023-12-04T02:15:02;101227.34;;;-0.04;100.00
71791;BME280;59638;52.126;5.434;2023-12-04T02:17:29;101227.34;;;-0.04;100.00
71791;BME280;59638;52.126;5.434;2023-12-04T02:19:55;101223.06;;;-0.05;100.00
71791;BME280;59638;52.126;5.434;2023-12-04T02:22:23;101219.56;;;-0.04;100.00
71791;BME280;59638;52.126;5.434;2023-12-04T02:24:50;101215.16;;;-0.02;100.00
71791;BME280;59638;52.126;5.434;2023-12-04T02:27:25;101220.34;;;-0.02;100.00
71791;BME280;59638;52.126;5.434;2023-12-04T02:29:57;101222.03;;;-0.01;100.00
71791;BME280;59638;52.126;5.434;2023-12-04T02:32:28;101215.97;;;0.00;100.00
71791;BME280;59638;52.126;5.434;2023-12-04T02:34:57;101214.97;;;0.03;100.00
71791;BME280;59638;52.126;5.434;2023-12-04T02:37:26;101205.44;;;0.03;100.00
71791;BME280;59638;52.126;5.434;2023-12-04T02:39:53;101204.47;;;0.06;100.00
71791;BME280;59638;52.126;5.434;2023-12-04T02:42:24;101197.50;;;0.06;100.00
71791;BME280;59638;52.126;5.434;2023-12-04T02:44:53;101192.31;;;0.06;100.00
71791;BME280;59638;52.126;5.434;2023-12-04T02:47:20;101188.03;;;0.05;100.00
71791;BME280;59638;52.126;5.434;2023-12-04T02:49:46;101182.84;;;0.05;100.00
71791;BME280;59638;52.126;5.434;2023-12-04T02:52:13;101175.22;;;0.02;100.00
71791;BME280;59638;52.126;5.434;2023-12-04T02:54:39;101179.50;;;0.03;100.00
71791;BME280;59638;52.126;5.434;2023-12-04T02:57:06;101166.50;;;0.03;100.00
71791;BME280;59638;52.126;5.434;2023-12-04T02:59:32;101177.81;;;0.02;100.00
71791;BME280;59638;52.126;5.434;2023-12-04T03:01:58;101166.59;;;0.02;100.00
71791;BME280;59638;52.126;5.434;2023-12-04T03:04:27;101157.03;;;0.02;100.00
71791;BME280;59638;52.126;5.434;2023-12-04T03:06:54;101163.91;;;0.03;100.00
71791;BME280;59638;52.126;5.434;2023-12-04T03:09:20;101167.41;;;0.02;100.00
71791;BME280;59638;52.126;5.434;2023-12-04T03:12:07;101153.53;;;0.03;100.00
71791;BME280;59638;52.126;5.434;2023-12-04T03:14:33;101155.28;;;0.03;100.00
71791;BME280;59638;52.126;5.434;2023-12-04T03:17:00;101151.84;;;0.02;100.00
71791;BME280;59638;52.126;5.434;2023-12-04T03:19:26;101147.56;;;0.01;100.00
71791;BME280;59638;52.126;5.434;2023-12-04T03:21:53;101142.38;;;0.01;100.00
71791;BME280;59638;52.126;5.434;2023-12-04T03:24:19;101139.66;;;0.04;100.00
71791;BME280;59638;52.126;5.434;2023-12-04T03:26:46;101134.47;;;0.04;100.00
71791;BME280;59638;52.126;5.434;2023-12-04T03:29:12;101144.91;;;0.03;100.00
71791;BME280;59638;52.126;5.434;2023-12-04T03:31:39;101130.19;;;0.03;100.00
71791;BME280;59638;52.126;5.434;2023-12-04T03:34:05;101131.84;;;0.04;100.00
71791;BME280;59638;52.126;5.434;2023-12-04T03:36:31;101116.34;;;0.03;100.00
71791;BME280;59638;52.126;5.434;2023-12-04T03:38:58;101120.72;;;0.02;100.00
71791;BME280;59638;52.126;5.434;2023-12-04T03:41:24;101116.44;;;0.01;100.00
71791;BME280;59638;52.126;5.434;2023-12-04T03:43:51;101105.13;;;0.02;100.00
71791;BME280;59638;52.126;5.434;2023-12-04T03:46:17;101111.16;;;0.03;100.00
71791;BME280;59638;52.126;5.434;2023-12-04T03:48:45;101113.69;;;0.04;100.00
71791;BME280;59638;52.126;5.434;2023-12-04T03:51:11;101102.47;;;0.04;100.00
71791;BME280;59638;52.126;5.434;2023-12-04T03:53:38;101105.00;;;0.05;100.00
71791;BME280;59638;52.126;5.434;2023-12-04T03:56:04;101098.13;;;0.04;100.00
71791;BME280;59638;52.126;5.434;2023-12-04T03:58:31;101091.25;;;0.03;100.00
71791;BME280;59638;52.126;5.434;2023-12-04T04:00:58;101091.09;;;0.06;100.00
71791;BME280;59638;52.126;5.434;2023-12-04T04:03:24;101089.44;;;0.05;100.00
71791;BME280;59638;52.126;5.434;2023-12-04T04:05:51;101086.06;;;0.03;100.00
71791;BME280;59638;52.126;5.434;2023-12-04T04:08:17;101074.84;;;0.03;100.00
71791;BME280;59638;52.126;5.434;2023-12-04T04:10:44;101074.00;;;0.02;100.00
71791;BME280;59638;52.126;5.434;2023-12-04T04:13:11;101078.19;;;0.05;100.00
71791;BME280;59638;52.126;5.434;2023-12-04T04:15:38;101078.94;;;0.08;100.00
71791;BME280;59638;52.126;5.434;2023-12-04T04:18:04;101076.34;;;0.08;100.00
71791;BME280;59638;52.126;5.434;2023-12-04T04:20:31;101068.56;;;0.08;100.00
71791;BME280;59638;52.126;5.434;2023-12-04T04:22:57;101065.88;;;0.10;100.00
71791;BME280;59638;52.126;5.434;2023-12-04T04:25:24;101063.34;;;0.08;100.00
71791;BME280;59638;52.126;5.434;2023-12-04T04:27:50;101051.16;;;0.10;100.00
71791;BME280;59638;52.126;5.434;2023-12-04T04:30:17;101056.22;;;0.13;100.00
71791;BME280;59638;52.126;5.434;2023-12-04T04:32:43;101063.22;;;0.11;100.00
71791;BME280;59638;52.126;5.434;2023-12-04T04:35:10;101044.13;;;0.12;100.00
71791;BME280;59638;52.126;5.434;2023-12-04T04:37:36;101051.91;;;0.12;100.00
71791;BME280;59638;52.126;5.434;2023-12-04T04:40:03;101042.34;;;0.14;100.00
71791;BME280;59638;52.126;5.434;2023-12-04T04:42:30;101039.59;;;0.17;100.00
71791;BME280;59638;52.126;5.434;2023-12-04T04:44:56;101048.22;;;0.18;100.00
71791;BME280;59638;52.126;5.434;2023-12-04T04:47:23;101039.50;;;0.19;100.00
71791;BME280;59638;52.126;5.434;2023-12-04T04:49:49;101047.38;;;0.17;100.00
71791;BME280;59638;52.126;5.434;2023-12-04T04:52:16;101040.34;;;0.19;100.00
71791;BME280;59638;52.126;5.434;2023-12-04T04:54:42;101043.88;;;0.18;100.00
71791;BME280;59638;52.126;5.434;2023-12-04T04:57:09;101026.59;;;0.17;100.00
71791;BME280;59638;52.126;5.434;2023-12-04T04:59:35;101030.84;;;0.20;100.00
71791;BME280;59638;52.126;5.434;2023-12-04T05:02:02;101039.47;;;0.20;100.00
71791;BME280;59638;52.126;5.434;2023-12-04T05:04:28;101033.47;;;0.18;100.00
71791;BME280;59638;52.126;5.434;2023-12-04T05:06:55;101037.91;;;0.16;100.00
71791;BME280;59638;52.126;5.434;2023-12-04T05:09:21;101027.53;;;0.16;100.00
71791;BME280;59638;52.126;5.434;2023-12-04T05:11:48;101030.13;;;0.16;100.00
71791;BME280;59638;52.126;5.434;2023-12-04T05:14:14;101027.72;;;0.12;100.00
71791;BME280;59638;52.126;5.434;2023-12-04T05:16:40;101025.06;;;0.13;100.00
71791;BME280;59638;52.126;5.434;2023-12-04T05:19:07;101021.56;;;0.14;100.00
71791;BME280;59638;52.126;5.434;2023-12-04T05:21:35;101008.59;;;0.14;100.00
71791;BME280;59638;52.126;5.434;2023-12-04T05:24:02;101021.56;;;0.14;100.00
71791;BME280;59638;52.126;5.434;2023-12-04T05:26:28;101009.44;;;0.15;100.00
71791;BME280;59638;52.126;5.434;2023-12-04T05:28:54;101006.00;;;0.14;100.00
71791;BME280;59638;52.126;5.434;2023-12-04T05:31:21;101007.78;;;0.12;100.00
71791;BME280;59638;52.126;5.434;2023-12-04T05:33:47;101007.75;;;0.14;100.00
71791;BME280;59638;52.126;5.434;2023-12-04T05:36:14;101004.16;;;0.16;100.00
71791;BME280;59638;52.126;5.434;2023-12-04T05:38:40;100996.44;;;0.15;100.00
71791;BME280;59638;52.126;5.434;2023-12-04T05:41:07;100985.22;;;0.14;100.00
71791;BME280;59638;52.126;5.434;2023-12-04T05:43:33;100989.59;;;0.14;100.00
71791;BME280;59638;52.126;5.434;2023-12-04T05:46:00;100974.84;;;0.14;100.00
71791;BME280;59638;52.126;5.434;2023-12-04T05:48:26;100969.50;;;0.17;100.00
71791;BME280;59638;52.126;5.434;2023-12-04T05:50:53;100969.50;;;0.17;100.00
71791;BME280;59638;52.126;5.434;2023-12-04T05:53:19;100967.81;;;0.16;100.00
71791;BME280;59638;52.126;5.434;2023-12-04T05:55:45;100968.75;;;0.15;100.00
71791;BME280;59638;52.126;5.434;2023-12-04T05:58:12;100970.50;;;0.15;100.00
71791;BME280;59638;52.126;5.434;2023-12-04T06:00:39;100971.97;;;0.20;100.00
71791;BME280;59638;52.126;5.434;2023-12-04T06:03:05;100969.38;;;0.20;100.00
71791;BME280;59638;52.126;5.434;2023-12-04T06:05:32;100968.59;;;0.18;100.00
71791;BME280;59638;52.126;5.434;2023-12-04T06:07:58;100967.66;;;0.19;100.00
71791;BME280;59638;52.126;5.434;2023-12-04T06:10:25;100966.00;;;0.18;100.00
71791;BME280;59638;52.126;5.434;2023-12-04T06:12:51;100960.69;;;0.21;100.00
71791;BME280;59638;52.126;5.434;2023-12-04T06:15:18;100952.97;;;0.20;100.00
71791;BME280;59638;52.126;5.434;2023-12-04T06:17:44;100959.00;;;0.20;100.00
71791;BME280;59638;52.126;5.434;2023-12-04T06:20:11;100960.53;;;0.24;100.00
71791;BME280;59638;52.126;5.434;2023-12-04T06:22:38;100960.41;;;0.28;100.00
71791;BME280;59638;52.126;5.434;2023-12-04T06:25:15;100960.41;;;0.28;100.00
71791;BME280;59638;52.126;5.434;2023-12-04T06:27:42;100968.19;;;0.28;100.00
71791;BME280;59638;52.126;5.434;2023-12-04T06:30:09;100956.97;;;0.27;100.00
71791;BME280;59638;52.126;5.434;2023-12-04T06:32:36;100955.06;;;0.31;100.00
71791;BME280;59638;52.126;5.434;2023-12-04T06:35:03;100948.19;;;0.30;100.00
71791;BME280;59638;52.126;5.434;2023-12-04T06:37:31;100949.75;;;0.34;100.00
71791;BME280;59638;52.126;5.434;2023-12-04T06:39:59;100939.47;;;0.31;100.00
71791;BME280;59638;52.126;5.434;2023-12-04T06:42:27;100939.47;;;0.31;100.00
71791;BME280;59638;52.126;5.434;2023-12-04T06:44:54;100935.13;;;0.31;100.00
71791;BME280;59638;52.126;5.434;2023-12-04T06:47:23;100926.56;;;0.29;100.00
71791;BME280;59638;52.126;5.434;2023-12-04T06:49:50;100923.91;;;0.31;100.00
71791;BME280;59638;52.126;5.434;2023-12-04T06:52:16;100916.03;;;0.32;100.00
71791;BME280;59638;52.126;5.434;2023-12-04T06:54:43;100917.88;;;0.30;100.00
71791;BME280;59638;52.126;5.434;2023-12-04T06:57:09;100908.31;;;0.31;100.00
71791;BME280;59638;52.126;5.434;2023-12-04T06:59:36;100909.25;;;0.30;100.00
71791;BME280;59638;52.126;5.434;2023-12-04T07:02:02;100904.97;;;0.29;100.00
71791;BME280;59638;52.126;5.434;2023-12-04T07:04:29;100893.59;;;0.31;100.00
71791;BME280;59638;52.126;5.434;2023-12-04T07:06:56;100902.22;;;0.32;100.00
71791;BME280;59638;52.126;5.434;2023-12-04T07:09:24;100910.00;;;0.32;100.00
71791;BME280;59638;52.126;5.434;2023-12-04T07:11:50;100903.13;;;0.31;100.00
71791;BME280;59638;52.126;5.434;2023-12-04T07:14:17;100899.63;;;0.32;100.00
71791;BME280;59638;52.126;5.434;2023-12-04T07:16:43;100892.75;;;0.31;100.00
71791;BME280;59638;52.126;5.434;2023-12-04T07:19:10;100884.03;;;0.32;100.00
71791;BME280;59638;52.126;5.434;2023-12-04T07:21:38;100884.03;;;0.32;100.00
71791;BME280;59638;52.126;5.434;2023-12-04T07:24:05;100878.72;;;0.35;100.00
71791;BME280;59638;52.126;5.434;2023-12-04T07:26:33;100877.72;;;0.37;100.00
71791;BME280;59638;52.126;5.434;2023-12-04T07:29:00;100885.59;;;0.36;100.00
71791;BME280;59638;52.126;5.434;2023-12-04T07:31:27;100882.09;;;0.37;100.00
71791;BME280;59638;52.126;5.434;2023-12-04T07:33:54;100876.75;;;0.40;100.00
71791;BME280;59638;52.126;5.434;2023-12-04T07:36:21;100877.53;;;0.42;100.00
71791;BME280;59638;52.126;5.434;2023-12-04T07:38:48;100888.81;;;0.41;100.00
71791;BME280;59638;52.126;5.434;2023-12-04T07:41:15;100873.25;;;0.41;100.00
71791;BME280;59638;52.126;5.434;2023-12-04T07:43:42;100882.63;;;0.43;100.00
71791;BME280;59638;52.126;5.434;2023-12-04T07:46:09;100880.13;;;0.42;100.00
71791;BME280;59638;52.126;5.434;2023-12-04T07:48:37;100880.13;;;0.42;100.00
71791;BME280;59638;52.126;5.434;2023-12-04T07:51:04;100880.13;;;0.42;100.00
71791;BME280;59638;52.126;5.434;2023-12-04T07:53:31;100868.06;;;0.41;100.00
71791;BME280;59638;52.126;5.434;2023-12-04T07:56:01;100871.41;;;0.43;100.00
71791;BME280;59638;52.126;5.434;2023-12-04T07:58:30;100869.56;;;0.45;100.00
71791;BME280;59638;52.126;5.434;2023-12-04T08:00:58;100868.59;;;0.47;100.00
71791;BME280;59638;52.126;5.434;2023-12-04T08:03:24;100865.94;;;0.49;100.00
71791;BME280;59638;52.126;5.434;2023-12-04T08:05:51;100871.88;;;0.51;100.00
71791;BME280;59638;52.126;5.434;2023-12-04T08:08:18;100874.47;;;0.51;100.00
71791;BME280;59638;52.126;5.434;2023-12-04T08:10:44;100872.69;;;0.53;100.00
71791;BME280;59638;52.126;5.434;2023-12-04T08:13:11;100869.00;;;0.57;100.00
71791;BME280;59638;52.126;5.434;2023-12-04T08:15:37;100867.25;;;0.58;100.00
71791;BME280;59638;52.126;5.434;2023-12-04T08:18:04;100872.34;;;0.59;100.00
71791;BME280;59638;52.126;5.434;2023-12-04T08:20:30;100867.16;;;0.59;100.00
71791;BME280;59638;52.126;5.434;2023-12-04T08:23:05;100872.22;;;0.62;100.00
71791;BME280;59638;52.126;5.434;2023-12-04T08:25:32;100880.78;;;0.64;100.00
71791;BME280;59638;52.126;5.434;2023-12-04T08:27:59;100877.13;;;0.68;100.00
71791;BME280;59638;52.126;5.434;2023-12-04T08:30:26;100883.16;;;0.69;100.00
71791;BME280;59638;52.126;5.434;2023-12-04T08:32:53;100873.59;;;0.69;100.00
71791;BME280;59638;52.126;5.434;2023-12-04T08:35:20;100857.84;;;0.72;100.00
71791;BME280;59638;52.126;5.434;2023-12-04T08:37:46;100857.72;;;0.75;100.00
71791;BME280;59638;52.126;5.434;2023-12-04T08:40:13;100861.06;;;0.77;100.00
71791;BME280;59638;52.126;5.434;2023-12-04T08:42:40;100857.56;;;0.78;100.00
71791;BME280;59638;52.126;5.434;2023-12-04T08:45:08;100847.03;;;0.81;100.00
71791;BME280;59638;52.126;5.434;2023-12-04T08:47:35;100850.31;;;0.85;100.00
71791;BME280;59638;52.126;5.434;2023-12-04T08:50:01;100840.69;;;0.87;100.00
71791;BME280;59638;52.126;5.434;2023-12-04T08:52:28;100843.97;;;0.91;100.00
71791;BME280;59638;52.126;5.434;2023-12-04T08:54:54;100836.97;;;0.93;100.00
71791;BME280;59638;52.126;5.434;2023-12-04T08:57:21;100837.72;;;0.95;100.00
71791;BME280;59638;52.126;5.434;2023-12-04T08:59:47;100841.78;;;1.00;100.00
71791;BME280;59638;52.126;5.434;2023-12-04T09:02:14;100840.75;;;1.03;100.00
71791;BME280;59638;52.126;5.434;2023-12-04T09:04:40;100835.44;;;1.06;100.00
71791;BME280;59638;52.126;5.434;2023-12-04T09:07:07;100830.06;;;1.09;100.00
71791;BME280;59638;52.126;5.434;2023-12-04T09:09:37;100820.41;;;1.11;100.00
71791;BME280;59638;52.126;5.434;2023-12-04T09:12:04;100828.06;;;1.14;100.00
71791;BME280;59638;52.126;5.434;2023-12-04T09:14:30;100824.56;;;1.15;100.00
71791;BME280;59638;52.126;5.434;2023-12-04T09:16:57;100817.38;;;1.20;100.00
71791;BME280;59638;52.126;5.434;2023-12-04T09:19:23;100814.59;;;1.23;100.00
71791;BME280;59638;52.126;5.434;2023-12-04T09:21:50;100823.09;;;1.27;100.00
71791;BME280;59638;52.126;5.434;2023-12-04T09:24:33;100825.28;;;1.34;100.00
71791;BME280;59638;52.126;5.434;2023-12-04T09:26:59;100818.84;;;1.42;100.00
71791;BME280;59638;52.126;5.434;2023-12-04T09:29:26;100807.38;;;1.46;100.00
71791;BME280;59638;52.126;5.434;2023-12-04T09:31:53;100816.84;;;1.47;100.00
71791;BME280;59638;52.126;5.434;2023-12-04T09:34:20;100818.44;;;1.49;100.00
71791;BME280;59638;52.126;5.434;2023-12-04T09:36:47;100812.22;;;1.52;100.00
71791;BME280;59638;52.126;5.434;2023-12-04T09:39:17;100812.09;;;1.55;100.00
71791;BME280;59638;52.126;5.434;2023-12-04T09:41:45;100815.44;;;1.57;100.00
71791;BME280;59638;52.126;5.434;2023-12-04T09:44:13;100808.56;;;1.56;100.00
71791;BME280;59638;52.126;5.434;2023-12-04T09:46:40;100811.34;;;1.53;100.00
71791;BME280;59638;52.126;5.434;2023-12-04T09:49:08;100809.56;;;1.53;100.00
71791;BME280;59638;52.126;5.434;2023-12-04T09:51:35;100811.25;;;1.54;100.00
71791;BME280;59638;52.126;5.434;2023-12-04T09:54:02;100803.34;;;1.56;100.00
71791;BME280;59638;52.126;5.434;2023-12-04T09:56:36;100805.03;;;1.57;100.00
71791;BME280;59638;52.126;5.434;2023-12-04T09:59:05;100799.69;;;1.60;100.00
71791;BME280;59638;52.126;5.434;2023-12-04T10:01:32;100795.97;;;1.64;100.00
71791;BME280;59638;52.126;5.434;2023-12-04T10:04:01;100798.34;;;1.69;100.00
71791;BME280;59638;52.126;5.434;2023-12-04T10:06:31;100798.16;;;1.72;100.00
71791;BME280;59638;52.126;5.434;2023-12-04T10:08:57;100792.81;;;1.75;100.00
71791;BME280;59638;52.126;5.434;2023-12-04T10:11:26;100786.44;;;1.80;100.00
71791;BME280;59638;52.126;5.434;2023-12-04T10:13:54;100788.88;;;1.83;100.00
71791;BME280;59638;52.126;5.434;2023-12-04T10:16:33;100782.56;;;1.87;100.00
71791;BME280;59638;52.126;5.434;2023-12-04T10:19:27;100775.38;;;1.93;100.00
71791;BME280;59638;52.126;5.434;2023-12-04T10:21:56;100769.81;;;1.99;100.00
71791;BME280;59638;52.126;5.434;2023-12-04T10:24:33;100762.56;;;2.04;100.00
71791;BME280;59638;52.126;5.434;2023-12-04T10:27:06;100760.56;;;2.09;100.00
71791;BME280;59638;52.126;5.434;2023-12-04T10:29:48;100749.81;;;2.15;100.00
71791;BME280;59638;52.126;5.434;2023-12-04T10:32:19;100754.00;;;2.17;100.00
71791;BME280;59638;52.126;5.434;2023-12-04T10:34:49;100751.31;;;2.19;100.00
71791;BME280;59638;52.126;5.434;2023-12-04T10:37:15;100750.31;;;2.22;100.00
71791;BME280;59638;52.126;5.434;2023-12-04T10:39:49;100745.28;;;2.18;100.00
71791;BME280;59638;52.126;5.434;2023-12-04T10:42:29;100741.66;;;2.21;100.00
71791;BME280;59638;52.126;5.434;2023-12-04T10:44:57;100732.16;;;2.20;100.00
71791;BME280;59638;52.126;5.434;2023-12-04T10:47:25;100731.31;;;2.20;100.00
71791;BME280;59638;52.126;5.434;2023-12-04T10:49:52;100726.97;;;2.20;100.00
71791;BME280;59638;52.126;5.434;2023-12-04T10:52:19;100726.13;;;2.20;100.00
71791;BME280;59638;52.126;5.434;2023-12-04T10:54:49;100719.16;;;2.20;100.00
71791;BME280;59638;52.126;5.434;2023-12-04T10:57:26;100713.00;;;2.21;100.00
71791;BME280;59638;52.126;5.434;2023-12-04T10:59:59;100708.47;;;2.25;100.00
71791;BME280;59638;52.126;5.434;2023-12-04T11:02:29;100705.78;;;2.26;100.00
71791;BME280;59638;52.126;5.434;2023-12-04T11:05:08;100702.88;;;2.31;100.00
71791;BME280;59638;52.126;5.434;2023-12-04T11:07:44;100699.38;;;2.32;100.00
71791;BME280;59638;52.126;5.434;2023-12-04T11:10:37;100689.81;;;2.32;100.00
71791;BME280;59638;52.126;5.434;2023-12-04T11:13:17;100684.41;;;2.35;100.00
71791;BME280;59638;52.126;5.434;2023-12-04T11:15:48;100672.13;;;2.37;100.00
71791;BME280;59638;52.126;5.434;2023-12-04T11:18:21;100666.91;;;2.37;100.00
71791;BME280;59638;52.126;5.434;2023-12-04T11:20:58;100665.44;;;2.33;100.00
71791;BME280;59638;52.126;5.434;2023-12-04T11:23:25;100665.59;;;2.30;100.00
71791;BME280;59638;52.126;5.434;2023-12-04T11:25:53;100658.72;;;2.29;100.00
71791;BME280;59638;52.126;5.434;2023-12-04T11:28:20;100660.38;;;2.30;100.00
71791;BME280;59638;52.126;5.434;2023-12-04T11:30:47;100655.38;;;2.27;100.00
71791;BME280;59638;52.126;5.434;2023-12-04T11:33:14;100647.66;;;2.26;100.00
71791;BME280;59638;52.126;5.434;2023-12-04T11:35:41;100642.16;;;2.30;100.00
71791;BME280;59638;52.126;5.434;2023-12-04T11:38:07;100645.31;;;2.35;100.00
71791;BME280;59638;52.126;5.434;2023-12-04T11:40:35;100638.19;;;2.39;100.00
71791;BME280;59638;52.126;5.434;2023-12-04T11:43:25;100636.13;;;2.44;100.00
71791;BME280;59638;52.126;5.434;2023-12-04T11:45:52;100631.94;;;2.41;100.00
71791;BME280;59638;52.126;5.434;2023-12-04T11:48:23;100630.44;;;2.37;100.00
71791;BME280;59638;52.126;5.434;2023-12-04T11:50:56;100636.03;;;2.31;100.00
71791;BME280;59638;52.126;5.434;2023-12-04T11:53:22;100632.03;;;2.26;100.00
71791;BME280;59638;52.126;5.434;2023-12-04T11:55:49;100631.34;;;2.22;100.00
71791;BME280;59638;52.126;5.434;2023-12-04T11:58:15;100625.41;;;2.20;100.00
71791;BME280;59638;52.126;5.434;2023-12-04T12:00:42;100634.03;;;2.21;100.00
71791;BME280;59638;52.126;5.434;2023-12-04T12:03:09;100617.75;;;2.17;100.00
71791;BME280;59638;52.126;5.434;2023-12-04T12:05:49;100623.16;;;2.14;100.00
71791;BME280;59638;52.126;5.434;2023-12-04T12:08:19;100611.06;;;2.13;100.00
71791;BME280;59638;52.126;5.434;2023-12-04T12:10:45;100621.47;;;2.13;100.00
71791;BME280;59638;52.126;5.434;2023-12-04T12:13:13;100612.91;;;2.11;100.00
71791;BME280;59638;52.126;5.434;2023-12-04T12:15:40;100605.09;;;2.11;100.00
71791;BME280;59638;52.126;5.434;2023-12-04T12:18:06;100614.41;;;2.15;100.00
71791;BME280;59638;52.126;5.434;2023-12-04T12:20:36;100611.63;;;2.18;100.00
71791;BME280;59638;52.126;5.434;2023-12-04T12:23:03;100605.31;;;2.22;100.00
71791;BME280;59638;52.126;5.434;2023-12-04T12:25:29;100597.97;;;2.29;100.00
71791;BME280;59638;52.126;5.434;2023-12-04T12:27:56;100592.66;;;2.30;100.00
71791;BME280;59638;52.126;5.434;2023-12-04T12:30:22;100594.16;;;2.34;100.00
71791;BME280;59638;52.126;5.434;2023-12-04T12:32:50;100588.03;;;2.35;100.00
71791;BME280;59638;52.126;5.434;2023-12-04T12:35:16;100591.56;;;2.34;100.00
71791;BME280;59638;52.126;5.434;2023-12-04T12:37:42;100588.22;;;2.32;100.00
71791;BME280;59638;52.126;5.434;2023-12-04T12:40:09;100580.78;;;2.26;100.00
71791;BME280;59638;52.126;5.434;2023-12-04T12:42:37;100579.09;;;2.25;100.00
71791;BME280;59638;52.126;5.434;2023-12-04T12:45:11;100572.88;;;2.28;100.00
71791;BME280;59638;52.126;5.434;2023-12-04T12:47:42;100565.88;;;2.28;100.00
71791;BME280;59638;52.126;5.434;2023-12-04T12:50:09;100564.94;;;2.29;100.00
71791;BME280;59638;52.126;5.434;2023-12-04T12:52:41;100558.91;;;2.29;100.00